sensor_id;sensor_type;location;lat;lon;timestamp;P1;durP1;ratioP1;P2;durP2;ratioP2
70071;SDS011;57434;42.794;23.302;2024-02-15T00:01:14;14.20;;;6.45;;
70071;SDS011;57434;42.794;23.302;2024-02-15T00:02:33;13.35;;;6.18;;
70071;SDS011;57434;42.794;23.302;2024-02-15T00:03:52;13.85;;;6.18;;
70071;SDS011;57434;42.794;23.302;2024-02-15T00:05:11;11.98;;;6.03;;
70071;SDS011;57434;42.794;23.302;2024-02-15T00:06:30;13.07;;;5.95;;
70071;SDS011;57434;42.794;23.302;2024-02-15T00:07:50;11.52;;;5.78;;
70071;SDS011;57434;42.794;23.302;2024-02-15T00:09:09;14.13;;;6.20;;
70071;SDS011;57434;42.794;23.302;2024-02-15T00:10:28;11.75;;;5.88;;
70071;SDS011;57434;42.794;23.302;2024-02-15T00:11:46;13.87;;;6.23;;
70071;SDS011;57434;42.794;23.302;2024-02-15T00:13:05;12.98;;;6.25;;
70071;SDS011;57434;42.794;23.302;2024-02-15T00:14:24;12.45;;;5.95;;
70071;SDS011;57434;42.794;23.302;2024-02-15T00:15:43;12.18;;;6.15;;
70071;SDS011;57434;42.794;23.302;2024-02-15T00:17:02;11.93;;;5.70;;
70071;SDS011;57434;42.794;23.302;2024-02-15T00:18:21;12.02;;;5.80;;
70071;SDS011;57434;42.794;23.302;2024-02-15T00:19:40;11.82;;;6.28;;
70071;SDS011;57434;42.794;23.302;2024-02-15T00:20:59;11.55;;;5.60;;
70071;SDS011;57434;42.794;23.302;2024-02-15T00:22:18;13.07;;;6.65;;
70071;SDS011;57434;42.794;23.302;2024-02-15T00:23:37;11.43;;;5.75;;
70071;SDS011;57434;42.794;23.302;2024-02-15T00:24:56;10.37;;;5.67;;
70071;SDS011;57434;42.794;23.302;2024-02-15T00:26:15;13.38;;;6.72;;
70071;SDS011;57434;42.794;23.302;2024-02-15T00:27:35;11.88;;;5.88;;
70071;SDS011;57434;42.794;23.302;2024-02-15T00:28:54;13.13;;;6.60;;
70071;SDS011;57434;42.794;23.302;2024-02-15T00:30:13;14.30;;;6.28;;
70071;SDS011;57434;42.794;23.302;2024-02-15T00:31:32;12.70;;;6.53;;
70071;SDS011;57434;42.794;23.302;2024-02-15T00:32:51;12.90;;;6.18;;
70071;SDS011;57434;42.794;23.302;2024-02-15T00:34:10;21.55;;;8.63;;
70071;SDS011;57434;42.794;23.302;2024-02-15T00:35:29;16.45;;;7.45;;
70071;SDS011;57434;42.794;23.302;2024-02-15T00:36:48;11.00;;;5.63;;
70071;SDS011;57434;42.794;23.302;2024-02-15T00:38:07;12.77;;;6.90;;
70071;SDS011;57434;42.794;23.302;2024-02-15T00:39:26;14.70;;;6.63;;
70071;SDS011;57434;42.794;23.302;2024-02-15T00:40:45;14.30;;;6.38;;
70071;SDS011;57434;42.794;23.302;2024-02-15T00:42:04;14.90;;;6.70;;
70071;SDS011;57434;42.794;23.302;2024-02-15T00:43:23;12.38;;;6.53;;
70071;SDS011;57434;42.794;23.302;2024-02-15T00:44:42;10.70;;;5.35;;
70071;SDS011;57434;42.794;23.302;2024-02-15T00:46:01;14.05;;;6.00;;
70071;SDS011;57434;42.794;23.302;2024-02-15T00:47:20;12.43;;;5.90;;
70071;SDS011;57434;42.794;23.302;2024-02-15T00:48:39;12.35;;;5.85;;
70071;SDS011;57434;42.794;23.302;2024-02-15T00:49:58;11.13;;;6.07;;
70071;SDS011;57434;42.794;23.302;2024-02-15T00:51:17;12.03;;;6.57;;
70071;SDS011;57434;42.794;23.302;2024-02-15T00:52:36;12.90;;;5.97;;
70071;SDS011;57434;42.794;23.302;2024-02-15T00:53:55;16.77;;;6.68;;
70071;SDS011;57434;42.794;23.302;2024-02-15T00:55:14;10.73;;;5.75;;
70071;SDS011;57434;42.794;23.302;2024-02-15T00:56:33;13.35;;;5.75;;
70071;SDS011;57434;42.794;23.302;2024-02-15T00:57:52;10.52;;;5.88;;
70071;SDS011;57434;42.794;23.302;2024-02-15T00:59:11;14.10;;;5.82;;
70071;SDS011;57434;42.794;23.302;2024-02-15T01:00:30;13.55;;;6.30;;
70071;SDS011;57434;42.794;23.302;2024-02-15T01:01:48;11.88;;;5.93;;
70071;SDS011;57434;42.794;23.302;2024-02-15T01:03:07;13.15;;;6.30;;
70071;SDS011;57434;42.794;23.302;2024-02-15T01:04:26;11.83;;;5.23;;
70071;SDS011;57434;42.794;23.302;2024-02-15T01:05:45;12.77;;;6.18;;
70071;SDS011;57434;42.794;23.302;2024-02-15T01:07:04;11.55;;;5.68;;
70071;SDS011;57434;42.794;23.302;2024-02-15T01:08:23;12.27;;;6.20;;
70071;SDS011;57434;42.794;23.302;2024-02-15T01:09:43;12.70;;;6.35;;
70071;SDS011;57434;42.794;23.302;2024-02-15T01:11:02;14.73;;;6.45;;
70071;SDS011;57434;42.794;23.302;2024-02-15T01:12:21;14.32;;;6.68;;
70071;SDS011;57434;42.794;23.302;2024-02-15T01:13:40;12.32;;;5.72;;
70071;SDS011;57434;42.794;23.302;2024-02-15T01:14:59;15.30;;;5.90;;
70071;SDS011;57434;42.794;23.302;2024-02-15T01:16:18;13.38;;;5.93;;
70071;SDS011;57434;42.794;23.302;2024-02-15T01:17:37;16.30;;;7.03;;
70071;SDS011;57434;42.794;23.302;2024-02-15T01:18:56;12.65;;;6.15;;
70071;SDS011;57434;42.794;23.302;2024-02-15T01:20:15;12.93;;;6.68;;
70071;SDS011;57434;42.794;23.302;2024-02-15T01:21:34;13.30;;;5.80;;
70071;SDS011;57434;42.794;23.302;2024-02-15T01:22:53;13.55;;;6.22;;
70071;SDS011;57434;42.794;23.302;2024-02-15T01:24:12;18.70;;;6.10;;
70071;SDS011;57434;42.794;23.302;2024-02-15T01:25:31;12.57;;;5.50;;
70071;SDS011;57434;42.794;23.302;2024-02-15T01:26:50;10.70;;;5.38;;
70071;SDS011;57434;42.794;23.302;2024-02-15T01:28:09;10.85;;;5.38;;
70071;SDS011;57434;42.794;23.302;2024-02-15T01:29:28;14.65;;;5.90;;
70071;SDS011;57434;42.794;23.302;2024-02-15T01:30:47;13.60;;;6.10;;
70071;SDS011;57434;42.794;23.302;2024-02-15T01:32:06;9.98;;;5.07;;
70071;SDS011;57434;42.794;23.302;2024-02-15T01:33:25;14.32;;;5.88;;
70071;SDS011;57434;42.794;23.302;2024-02-15T01:34:44;10.30;;;5.25;;
70071;SDS011;57434;42.794;23.302;2024-02-15T01:36:03;12.02;;;6.32;;
70071;SDS011;57434;42.794;23.302;2024-02-15T01:37:22;11.48;;;5.93;;
70071;SDS011;57434;42.794;23.302;2024-02-15T01:38:41;13.93;;;6.80;;
70071;SDS011;57434;42.794;23.302;2024-02-15T01:40:00;11.30;;;5.75;;
70071;SDS011;57434;42.794;23.302;2024-02-15T01:41:19;11.57;;;5.25;;
70071;SDS011;57434;42.794;23.302;2024-02-15T01:42:38;12.02;;;5.70;;
70071;SDS011;57434;42.794;23.302;2024-02-15T01:43:58;11.07;;;5.53;;
70071;SDS011;57434;42.794;23.302;2024-02-15T01:45:17;13.32;;;5.78;;
70071;SDS011;57434;42.794;23.302;2024-02-15T01:46:35;15.02;;;5.55;;
70071;SDS011;57434;42.794;23.302;2024-02-15T01:47:55;12.20;;;5.63;;
70071;SDS011;57434;42.794;23.302;2024-02-15T01:49:14;11.02;;;5.63;;
70071;SDS011;57434;42.794;23.302;2024-02-15T01:50:33;13.38;;;6.53;;
70071;SDS011;57434;42.794;23.302;2024-02-15T01:51:52;14.88;;;6.18;;
70071;SDS011;57434;42.794;23.302;2024-02-15T01:53:13;14.75;;;6.38;;
70071;SDS011;57434;42.794;23.302;2024-02-15T01:54:32;11.82;;;5.13;;
70071;SDS011;57434;42.794;23.302;2024-02-15T01:55:54;12.15;;;5.47;;
70071;SDS011;57434;42.794;23.302;2024-02-15T01:57:14;13.37;;;5.97;;
70071;SDS011;57434;42.794;23.302;2024-02-15T01:58:33;19.48;;;6.80;;
70071;SDS011;57434;42.794;23.302;2024-02-15T01:59:52;11.15;;;6.03;;
70071;SDS011;57434;42.794;23.302;2024-02-15T02:01:11;13.15;;;6.15;;
70071;SDS011;57434;42.794;23.302;2024-02-15T02:02:31;16.40;;;5.93;;
70071;SDS011;57434;42.794;23.302;2024-02-15T02:03:51;15.73;;;6.03;;
70071;SDS011;57434;42.794;23.302;2024-02-15T02:05:10;12.98;;;6.40;;
70071;SDS011;57434;42.794;23.302;2024-02-15T02:06:30;15.57;;;5.97;;
70071;SDS011;57434;42.794;23.302;2024-02-15T02:07:49;11.80;;;5.90;;
70071;SDS011;57434;42.794;23.302;2024-02-15T02:09:11;14.23;;;5.82;;
70071;SDS011;57434;42.794;23.302;2024-02-15T02:10:31;12.83;;;5.57;;
70071;SDS011;57434;42.794;23.302;2024-02-15T02:13:27;11.80;;;5.57;;
70071;SDS011;57434;42.794;23.302;2024-02-15T02:14:46;13.35;;;6.00;;
70071;SDS011;57434;42.794;23.302;2024-02-15T02:16:23;12.23;;;5.20;;
70071;SDS011;57434;42.794;23.302;2024-02-15T02:17:42;13.00;;;6.05;;
70071;SDS011;57434;42.794;23.302;2024-02-15T02:19:01;11.68;;;5.45;;
70071;SDS011;57434;42.794;23.302;2024-02-15T02:20:20;13.95;;;6.03;;
70071;SDS011;57434;42.794;23.302;2024-02-15T02:21:39;11.27;;;4.93;;
70071;SDS011;57434;42.794;23.302;2024-02-15T02:23:02;14.30;;;5.53;;
70071;SDS011;57434;42.794;23.302;2024-02-15T02:24:22;10.00;;;4.63;;
70071;SDS011;57434;42.794;23.302;2024-02-15T02:25:41;9.57;;;4.65;;
70071;SDS011;57434;42.794;23.302;2024-02-15T02:27:00;14.65;;;5.78;;
70071;SDS011;57434;42.794;23.302;2024-02-15T02:28:19;13.02;;;5.85;;
70071;SDS011;57434;42.794;23.302;2024-02-15T02:29:42;12.95;;;5.30;;
70071;SDS011;57434;42.794;23.302;2024-02-15T02:31:01;11.32;;;5.07;;
70071;SDS011;57434;42.794;23.302;2024-02-15T02:32:20;13.82;;;5.53;;
70071;SDS011;57434;42.794;23.302;2024-02-15T02:33:39;12.65;;;5.45;;
70071;SDS011;57434;42.794;23.302;2024-02-15T02:34:58;12.30;;;5.95;;
70071;SDS011;57434;42.794;23.302;2024-02-15T02:36:18;13.65;;;5.68;;
70071;SDS011;57434;42.794;23.302;2024-02-15T02:37:37;14.20;;;5.93;;
70071;SDS011;57434;42.794;23.302;2024-02-15T02:38:56;11.60;;;5.50;;
70071;SDS011;57434;42.794;23.302;2024-02-15T02:40:15;13.27;;;6.07;;
70071;SDS011;57434;42.794;23.302;2024-02-15T02:41:34;16.88;;;6.32;;
70071;SDS011;57434;42.794;23.302;2024-02-15T02:42:54;10.45;;;5.28;;
70071;SDS011;57434;42.794;23.302;2024-02-15T02:44:13;15.23;;;5.53;;
70071;SDS011;57434;42.794;23.302;2024-02-15T02:45:32;19.33;;;5.70;;
70071;SDS011;57434;42.794;23.302;2024-02-15T02:46:51;13.20;;;6.13;;
70071;SDS011;57434;42.794;23.302;2024-02-15T02:48:10;12.00;;;5.60;;
70071;SDS011;57434;42.794;23.302;2024-02-15T02:49:29;11.55;;;5.15;;
70071;SDS011;57434;42.794;23.302;2024-02-15T02:50:48;15.73;;;6.30;;
70071;SDS011;57434;42.794;23.302;2024-02-15T02:52:08;12.35;;;4.72;;
70071;SDS011;57434;42.794;23.302;2024-02-15T02:53:27;11.40;;;6.18;;
70071;SDS011;57434;42.794;23.302;2024-02-15T02:54:46;13.77;;;5.95;;
70071;SDS011;57434;42.794;23.302;2024-02-15T02:56:05;13.13;;;6.35;;
70071;SDS011;57434;42.794;23.302;2024-02-15T02:57:24;13.65;;;6.00;;
70071;SDS011;57434;42.794;23.302;2024-02-15T02:58:42;14.02;;;6.18;;
70071;SDS011;57434;42.794;23.302;2024-02-15T03:00:02;18.98;;;7.38;;
70071;SDS011;57434;42.794;23.302;2024-02-15T03:01:22;14.98;;;6.50;;
70071;SDS011;57434;42.794;23.302;2024-02-15T03:02:43;13.10;;;6.47;;
70071;SDS011;57434;42.794;23.302;2024-02-15T03:04:02;17.03;;;6.33;;
70071;SDS011;57434;42.794;23.302;2024-02-15T03:05:21;13.73;;;6.85;;
70071;SDS011;57434;42.794;23.302;2024-02-15T03:06:40;15.20;;;6.13;;
70071;SDS011;57434;42.794;23.302;2024-02-15T03:07:59;14.05;;;5.53;;
70071;SDS011;57434;42.794;23.302;2024-02-15T03:09:18;16.63;;;5.55;;
70071;SDS011;57434;42.794;23.302;2024-02-15T03:10:37;13.30;;;6.53;;
70071;SDS011;57434;42.794;23.302;2024-02-15T03:11:57;13.25;;;6.30;;
70071;SDS011;57434;42.794;23.302;2024-02-15T03:13:16;13.23;;;5.00;;
70071;SDS011;57434;42.794;23.302;2024-02-15T03:14:34;16.17;;;6.90;;
70071;SDS011;57434;42.794;23.302;2024-02-15T03:15:53;17.35;;;6.22;;
70071;SDS011;57434;42.794;23.302;2024-02-15T03:17:12;12.13;;;5.67;;
70071;SDS011;57434;42.794;23.302;2024-02-15T03:18:31;16.35;;;6.30;;
70071;SDS011;57434;42.794;23.302;2024-02-15T03:19:50;14.23;;;6.10;;
70071;SDS011;57434;42.794;23.302;2024-02-15T03:21:09;14.57;;;6.68;;
70071;SDS011;57434;42.794;23.302;2024-02-15T03:22:28;13.88;;;5.82;;
70071;SDS011;57434;42.794;23.302;2024-02-15T03:23:47;13.00;;;5.85;;
70071;SDS011;57434;42.794;23.302;2024-02-15T03:25:06;12.60;;;6.28;;
70071;SDS011;57434;42.794;23.302;2024-02-15T03:26:31;14.70;;;5.80;;
70071;SDS011;57434;42.794;23.302;2024-02-15T03:27:51;12.55;;;5.72;;
70071;SDS011;57434;42.794;23.302;2024-02-15T03:29:10;15.35;;;5.63;;
70071;SDS011;57434;42.794;23.302;2024-02-15T03:30:30;13.60;;;6.20;;
70071;SDS011;57434;42.794;23.302;2024-02-15T03:31:49;15.50;;;5.97;;
70071;SDS011;57434;42.794;23.302;2024-02-15T03:33:08;13.20;;;5.57;;
70071;SDS011;57434;42.794;23.302;2024-02-15T03:34:27;10.27;;;5.35;;
70071;SDS011;57434;42.794;23.302;2024-02-15T03:35:46;12.43;;;5.57;;
70071;SDS011;57434;42.794;23.302;2024-02-15T03:37:05;13.75;;;5.53;;
70071;SDS011;57434;42.794;23.302;2024-02-15T03:38:24;11.15;;;5.82;;
70071;SDS011;57434;42.794;23.302;2024-02-15T03:39:43;12.45;;;6.05;;
70071;SDS011;57434;42.794;23.302;2024-02-15T03:41:02;12.82;;;6.07;;
70071;SDS011;57434;42.794;23.302;2024-02-15T03:42:21;13.82;;;5.95;;
70071;SDS011;57434;42.794;23.302;2024-02-15T03:43:40;15.43;;;6.37;;
70071;SDS011;57434;42.794;23.302;2024-02-15T03:44:59;13.82;;;5.70;;
70071;SDS011;57434;42.794;23.302;2024-02-15T03:46:18;12.00;;;6.47;;
70071;SDS011;57434;42.794;23.302;2024-02-15T03:47:37;14.15;;;6.05;;
70071;SDS011;57434;42.794;23.302;2024-02-15T03:48:56;14.35;;;5.43;;
70071;SDS011;57434;42.794;23.302;2024-02-15T03:50:15;17.35;;;6.50;;
70071;SDS011;57434;42.794;23.302;2024-02-15T03:51:34;12.60;;;5.38;;
70071;SDS011;57434;42.794;23.302;2024-02-15T03:52:53;12.95;;;5.65;;
70071;SDS011;57434;42.794;23.302;2024-02-15T03:54:12;12.15;;;4.72;;
70071;SDS011;57434;42.794;23.302;2024-02-15T03:55:31;15.85;;;6.75;;
70071;SDS011;57434;42.794;23.302;2024-02-15T03:56:50;12.73;;;5.70;;
70071;SDS011;57434;42.794;23.302;2024-02-15T03:58:09;17.77;;;6.38;;
70071;SDS011;57434;42.794;23.302;2024-02-15T03:59:28;14.15;;;5.93;;
70071;SDS011;57434;42.794;23.302;2024-02-15T04:00:47;12.65;;;5.45;;
70071;SDS011;57434;42.794;23.302;2024-02-15T04:02:06;12.93;;;5.03;;
70071;SDS011;57434;42.794;23.302;2024-02-15T04:03:25;15.35;;;5.78;;
70071;SDS011;57434;42.794;23.302;2024-02-15T04:04:44;14.18;;;5.88;;
70071;SDS011;57434;42.794;23.302;2024-02-15T04:07:26;14.27;;;6.53;;
70071;SDS011;57434;42.794;23.302;2024-02-15T04:08:28;15.70;;;5.95;;
70071;SDS011;57434;42.794;23.302;2024-02-15T04:09:30;14.37;;;5.73;;
70071;SDS011;57434;42.794;23.302;2024-02-15T04:10:31;14.73;;;6.45;;
70071;SDS011;57434;42.794;23.302;2024-02-15T04:11:33;19.73;;;6.32;;
70071;SDS011;57434;42.794;23.302;2024-02-15T04:12:35;18.02;;;7.43;;
70071;SDS011;57434;42.794;23.302;2024-02-15T04:13:36;12.70;;;5.75;;
70071;SDS011;57434;42.794;23.302;2024-02-15T04:14:38;15.88;;;6.97;;
70071;SDS011;57434;42.794;23.302;2024-02-15T04:15:40;14.73;;;7.15;;
70071;SDS011;57434;42.794;23.302;2024-02-15T04:16:41;16.42;;;6.80;;
70071;SDS011;57434;42.794;23.302;2024-02-15T04:17:43;16.63;;;7.07;;
70071;SDS011;57434;42.794;23.302;2024-02-15T04:18:45;14.57;;;6.28;;
70071;SDS011;57434;42.794;23.302;2024-02-15T04:19:47;15.83;;;7.07;;
70071;SDS011;57434;42.794;23.302;2024-02-15T04:20:49;18.33;;;7.53;;
70071;SDS011;57434;42.794;23.302;2024-02-15T04:21:50;17.95;;;7.00;;
70071;SDS011;57434;42.794;23.302;2024-02-15T04:22:52;16.92;;;6.85;;
70071;SDS011;57434;42.794;23.302;2024-02-15T04:23:54;18.02;;;7.47;;
70071;SDS011;57434;42.794;23.302;2024-02-15T04:24:55;16.85;;;7.40;;
70071;SDS011;57434;42.794;23.302;2024-02-15T04:25:57;16.23;;;7.75;;
70071;SDS011;57434;42.794;23.302;2024-02-15T04:26:58;14.75;;;7.35;;
70071;SDS011;57434;42.794;23.302;2024-02-15T04:28:00;14.48;;;7.05;;
70071;SDS011;57434;42.794;23.302;2024-02-15T04:29:02;16.48;;;7.28;;
70071;SDS011;57434;42.794;23.302;2024-02-15T04:30:06;15.77;;;6.73;;
70071;SDS011;57434;42.794;23.302;2024-02-15T04:31:08;16.05;;;6.95;;
70071;SDS011;57434;42.794;23.302;2024-02-15T04:32:10;16.67;;;7.20;;
70071;SDS011;57434;42.794;23.302;2024-02-15T04:33:12;16.30;;;6.45;;
70071;SDS011;57434;42.794;23.302;2024-02-15T04:34:13;19.67;;;7.95;;
70071;SDS011;57434;42.794;23.302;2024-02-15T04:35:15;20.58;;;7.47;;
70071;SDS011;57434;42.794;23.302;2024-02-15T04:36:17;16.58;;;7.47;;
70071;SDS011;57434;42.794;23.302;2024-02-15T04:37:18;16.85;;;7.05;;
70071;SDS011;57434;42.794;23.302;2024-02-15T04:38:20;13.85;;;6.75;;
70071;SDS011;57434;42.794;23.302;2024-02-15T04:39:22;15.50;;;7.80;;
70071;SDS011;57434;42.794;23.302;2024-02-15T04:40:23;22.00;;;8.30;;
70071;SDS011;57434;42.794;23.302;2024-02-15T04:41:25;16.83;;;7.60;;
70071;SDS011;57434;42.794;23.302;2024-02-15T04:42:26;17.13;;;7.85;;
70071;SDS011;57434;42.794;23.302;2024-02-15T04:43:28;19.67;;;7.65;;
70071;SDS011;57434;42.794;23.302;2024-02-15T04:44:30;19.55;;;7.90;;
70071;SDS011;57434;42.794;23.302;2024-02-15T04:45:31;19.05;;;8.15;;
70071;SDS011;57434;42.794;23.302;2024-02-15T04:46:33;22.00;;;8.05;;
70071;SDS011;57434;42.794;23.302;2024-02-15T04:47:34;16.25;;;7.03;;
70071;SDS011;57434;42.794;23.302;2024-02-15T04:48:36;18.95;;;8.23;;
70071;SDS011;57434;42.794;23.302;2024-02-15T04:49:38;17.52;;;7.30;;
70071;SDS011;57434;42.794;23.302;2024-02-15T04:50:40;19.80;;;7.60;;
70071;SDS011;57434;42.794;23.302;2024-02-15T04:51:41;18.17;;;7.60;;
70071;SDS011;57434;42.794;23.302;2024-02-15T04:52:43;14.68;;;7.40;;
70071;SDS011;57434;42.794;23.302;2024-02-15T04:53:45;21.63;;;7.88;;
70071;SDS011;57434;42.794;23.302;2024-02-15T04:54:47;15.93;;;7.32;;
70071;SDS011;57434;42.794;23.302;2024-02-15T04:55:48;17.77;;;8.02;;
70071;SDS011;57434;42.794;23.302;2024-02-15T04:56:50;17.10;;;6.82;;
70071;SDS011;57434;42.794;23.302;2024-02-15T04:57:52;16.60;;;6.53;;
70071;SDS011;57434;42.794;23.302;2024-02-15T04:58:53;13.60;;;6.20;;
70071;SDS011;57434;42.794;23.302;2024-02-15T04:59:55;18.60;;;7.05;;
70071;SDS011;57434;42.794;23.302;2024-02-15T05:00:57;16.00;;;7.40;;
70071;SDS011;57434;42.794;23.302;2024-02-15T05:01:59;14.55;;;6.93;;
70071;SDS011;57434;42.794;23.302;2024-02-15T05:03:00;20.85;;;7.30;;
70071;SDS011;57434;42.794;23.302;2024-02-15T05:04:02;17.77;;;6.88;;
70071;SDS011;57434;42.794;23.302;2024-02-15T05:05:04;17.52;;;8.20;;
70071;SDS011;57434;42.794;23.302;2024-02-15T05:06:05;12.85;;;6.35;;
70071;SDS011;57434;42.794;23.302;2024-02-15T05:07:07;13.90;;;6.40;;
70071;SDS011;57434;42.794;23.302;2024-02-15T05:08:09;17.45;;;7.10;;
70071;SDS011;57434;42.794;23.302;2024-02-15T05:09:10;16.88;;;7.20;;
70071;SDS011;57434;42.794;23.302;2024-02-15T05:10:12;15.90;;;6.72;;
70071;SDS011;57434;42.794;23.302;2024-02-15T05:11:14;21.73;;;8.30;;
70071;SDS011;57434;42.794;23.302;2024-02-15T05:12:22;17.73;;;7.75;;
70071;SDS011;57434;42.794;23.302;2024-02-15T05:13:24;16.33;;;7.32;;
70071;SDS011;57434;42.794;23.302;2024-02-15T05:14:26;16.88;;;6.63;;
70071;SDS011;57434;42.794;23.302;2024-02-15T05:15:27;15.82;;;7.10;;
70071;SDS011;57434;42.794;23.302;2024-02-15T05:16:29;18.23;;;8.00;;
70071;SDS011;57434;42.794;23.302;2024-02-15T05:17:31;18.70;;;8.00;;
70071;SDS011;57434;42.794;23.302;2024-02-15T05:18:33;17.00;;;6.40;;
70071;SDS011;57434;42.794;23.302;2024-02-15T05:19:35;18.98;;;8.32;;
70071;SDS011;57434;42.794;23.302;2024-02-15T05:20:36;18.70;;;7.75;;
70071;SDS011;57434;42.794;23.302;2024-02-15T05:21:38;12.67;;;5.23;;
70071;SDS011;57434;42.794;23.302;2024-02-15T05:22:40;15.77;;;7.10;;
70071;SDS011;57434;42.794;23.302;2024-02-15T05:23:46;18.33;;;7.80;;
70071;SDS011;57434;42.794;23.302;2024-02-15T05:24:47;15.45;;;7.40;;
70071;SDS011;57434;42.794;23.302;2024-02-15T05:25:49;15.40;;;6.90;;
70071;SDS011;57434;42.794;23.302;2024-02-15T05:26:50;17.73;;;7.78;;
70071;SDS011;57434;42.794;23.302;2024-02-15T05:27:55;16.10;;;7.28;;
70071;SDS011;57434;42.794;23.302;2024-02-15T05:28:58;18.70;;;7.93;;
70071;SDS011;57434;42.794;23.302;2024-02-15T05:30:00;17.70;;;7.88;;
70071;SDS011;57434;42.794;23.302;2024-02-15T05:31:11;16.23;;;7.65;;
70071;SDS011;57434;42.794;23.302;2024-02-15T05:32:13;20.50;;;8.73;;
70071;SDS011;57434;42.794;23.302;2024-02-15T05:33:15;16.80;;;8.05;;
70071;SDS011;57434;42.794;23.302;2024-02-15T05:34:16;18.10;;;7.65;;
70071;SDS011;57434;42.794;23.302;2024-02-15T05:35:18;14.43;;;7.15;;
70071;SDS011;57434;42.794;23.302;2024-02-15T05:36:20;16.58;;;7.82;;
70071;SDS011;57434;42.794;23.302;2024-02-15T05:37:22;18.00;;;8.00;;
70071;SDS011;57434;42.794;23.302;2024-02-15T05:38:24;18.55;;;8.52;;
70071;SDS011;57434;42.794;23.302;2024-02-15T05:39:25;18.52;;;7.55;;
70071;SDS011;57434;42.794;23.302;2024-02-15T05:40:27;17.30;;;7.43;;
70071;SDS011;57434;42.794;23.302;2024-02-15T05:41:29;18.48;;;8.30;;
70071;SDS011;57434;42.794;23.302;2024-02-15T05:42:30;16.37;;;7.27;;
70071;SDS011;57434;42.794;23.302;2024-02-15T05:43:32;13.50;;;6.50;;
70071;SDS011;57434;42.794;23.302;2024-02-15T05:44:37;16.33;;;7.47;;
70071;SDS011;57434;42.794;23.302;2024-02-15T05:45:39;16.63;;;7.57;;
70071;SDS011;57434;42.794;23.302;2024-02-15T05:46:40;19.52;;;7.45;;
70071;SDS011;57434;42.794;23.302;2024-02-15T05:47:42;19.67;;;8.20;;
70071;SDS011;57434;42.794;23.302;2024-02-15T05:48:44;17.58;;;7.15;;
70071;SDS011;57434;42.794;23.302;2024-02-15T05:49:45;21.50;;;10.18;;
70071;SDS011;57434;42.794;23.302;2024-02-15T05:50:47;18.77;;;8.30;;
70071;SDS011;57434;42.794;23.302;2024-02-15T05:51:49;19.60;;;7.82;;
70071;SDS011;57434;42.794;23.302;2024-02-15T05:52:50;19.87;;;7.93;;
70071;SDS011;57434;42.794;23.302;2024-02-15T05:53:52;17.48;;;7.78;;
70071;SDS011;57434;42.794;23.302;2024-02-15T05:54:54;21.10;;;8.38;;
70071;SDS011;57434;42.794;23.302;2024-02-15T05:55:55;20.73;;;7.55;;
70071;SDS011;57434;42.794;23.302;2024-02-15T05:56:57;15.60;;;7.63;;
70071;SDS011;57434;42.794;23.302;2024-02-15T05:57:59;16.60;;;7.72;;
70071;SDS011;57434;42.794;23.302;2024-02-15T05:59:01;18.67;;;7.03;;
70071;SDS011;57434;42.794;23.302;2024-02-15T06:00:02;17.25;;;6.22;;
70071;SDS011;57434;42.794;23.302;2024-02-15T06:01:20;17.90;;;7.10;;
70071;SDS011;57434;42.794;23.302;2024-02-15T06:02:22;19.30;;;7.38;;
70071;SDS011;57434;42.794;23.302;2024-02-15T06:03:23;18.07;;;8.03;;
70071;SDS011;57434;42.794;23.302;2024-02-15T06:04:25;18.83;;;7.70;;
70071;SDS011;57434;42.794;23.302;2024-02-15T06:05:27;17.17;;;7.72;;
70071;SDS011;57434;42.794;23.302;2024-02-15T06:06:28;18.92;;;7.78;;
70071;SDS011;57434;42.794;23.302;2024-02-15T06:07:30;17.80;;;7.90;;
70071;SDS011;57434;42.794;23.302;2024-02-15T06:08:35;18.38;;;8.13;;
70071;SDS011;57434;42.794;23.302;2024-02-15T06:09:37;18.45;;;8.07;;
70071;SDS011;57434;42.794;23.302;2024-02-15T06:10:39;16.42;;;7.35;;
70071;SDS011;57434;42.794;23.302;2024-02-15T06:11:41;16.92;;;7.30;;
70071;SDS011;57434;42.794;23.302;2024-02-15T06:12:42;20.48;;;8.10;;
70071;SDS011;57434;42.794;23.302;2024-02-15T06:13:44;17.30;;;7.50;;
70071;SDS011;57434;42.794;23.302;2024-02-15T06:14:46;18.10;;;7.45;;
70071;SDS011;57434;42.794;23.302;2024-02-15T06:15:47;15.18;;;7.03;;
70071;SDS011;57434;42.794;23.302;2024-02-15T06:16:49;15.82;;;7.47;;
70071;SDS011;57434;42.794;23.302;2024-02-15T06:17:51;21.17;;;8.55;;
70071;SDS011;57434;42.794;23.302;2024-02-15T06:18:52;15.88;;;7.35;;
70071;SDS011;57434;42.794;23.302;2024-02-15T06:19:54;16.50;;;7.40;;
70071;SDS011;57434;42.794;23.302;2024-02-15T06:20:56;17.13;;;7.28;;
70071;SDS011;57434;42.794;23.302;2024-02-15T06:21:58;15.70;;;7.05;;
70071;SDS011;57434;42.794;23.302;2024-02-15T06:22:59;18.20;;;8.60;;
70071;SDS011;57434;42.794;23.302;2024-02-15T06:24:01;19.20;;;7.50;;
70071;SDS011;57434;42.794;23.302;2024-02-15T06:25:03;18.30;;;7.20;;
70071;SDS011;57434;42.794;23.302;2024-02-15T06:26:04;20.20;;;8.57;;
70071;SDS011;57434;42.794;23.302;2024-02-15T06:27:06;16.65;;;7.90;;
70071;SDS011;57434;42.794;23.302;2024-02-15T06:28:07;16.35;;;7.30;;
70071;SDS011;57434;42.794;23.302;2024-02-15T06:29:09;19.48;;;7.45;;
70071;SDS011;57434;42.794;23.302;2024-02-15T06:30:11;16.65;;;7.43;;
70071;SDS011;57434;42.794;23.302;2024-02-15T06:31:13;16.45;;;7.22;;
70071;SDS011;57434;42.794;23.302;2024-02-15T06:32:15;19.63;;;7.68;;
70071;SDS011;57434;42.794;23.302;2024-02-15T06:33:16;22.95;;;7.80;;
70071;SDS011;57434;42.794;23.302;2024-02-15T06:34:18;18.57;;;7.93;;
70071;SDS011;57434;42.794;23.302;2024-02-15T06:35:20;14.65;;;6.93;;
70071;SDS011;57434;42.794;23.302;2024-02-15T06:36:22;17.60;;;7.78;;
70071;SDS011;57434;42.794;23.302;2024-02-15T06:37:39;17.25;;;6.80;;
70071;SDS011;57434;42.794;23.302;2024-02-15T06:38:41;18.83;;;7.50;;
70071;SDS011;57434;42.794;23.302;2024-02-15T06:39:42;15.30;;;6.65;;
70071;SDS011;57434;42.794;23.302;2024-02-15T06:40:44;17.35;;;7.63;;
70071;SDS011;57434;42.794;23.302;2024-02-15T06:41:46;16.95;;;7.25;;
70071;SDS011;57434;42.794;23.302;2024-02-15T06:42:48;16.65;;;7.05;;
70071;SDS011;57434;42.794;23.302;2024-02-15T06:43:50;19.30;;;7.47;;
70071;SDS011;57434;42.794;23.302;2024-02-15T06:44:51;18.57;;;8.43;;
70071;SDS011;57434;42.794;23.302;2024-02-15T06:45:53;17.55;;;8.23;;
70071;SDS011;57434;42.794;23.302;2024-02-15T06:46:54;18.30;;;7.90;;
70071;SDS011;57434;42.794;23.302;2024-02-15T06:47:56;17.05;;;7.30;;
70071;SDS011;57434;42.794;23.302;2024-02-15T06:48:58;18.15;;;7.78;;
70071;SDS011;57434;42.794;23.302;2024-02-15T06:50:00;12.50;;;6.50;;
70071;SDS011;57434;42.794;23.302;2024-02-15T06:51:01;15.75;;;7.22;;
70071;SDS011;57434;42.794;23.302;2024-02-15T06:52:03;16.58;;;8.02;;
70071;SDS011;57434;42.794;23.302;2024-02-15T06:53:05;16.40;;;7.95;;
70071;SDS011;57434;42.794;23.302;2024-02-15T06:54:06;18.08;;;7.70;;
70071;SDS011;57434;42.794;23.302;2024-02-15T06:55:08;18.30;;;7.37;;
70071;SDS011;57434;42.794;23.302;2024-02-15T06:56:10;18.30;;;7.82;;
70071;SDS011;57434;42.794;23.302;2024-02-15T06:57:12;16.77;;;7.22;;
70071;SDS011;57434;42.794;23.302;2024-02-15T06:58:17;17.05;;;6.88;;
70071;SDS011;57434;42.794;23.302;2024-02-15T06:59:18;19.23;;;7.78;;